Last Tycoon — ZDJZ6 — position and weather

sailwx.info

Track history (hours):
 
Tides and Currents Weather Stations Pressure Air Temp Water Temp Dewpoint Dewpoint Depression Visibility Wind Speed Wind Dir Waves Ship Positions

Last Tycoon

Last reported at 2018-Apr-16 23:34 UTC. Time now 2018-Apr-24 04:59 UTC.
Position S 27°37' E 153°55'.

Length 180 m; draft 8.4 m.

Type: Cargo ship. MMSI: 236607000.

Date/timePositionNaut miles runAvg speedWind from/ knotsBaromVisibWave heightAir tempDewpointWater temp
2018-Apr-16 23:34S 27°37' E 153°55'112.6
2018-Apr-16 23:27S 27°39' E 153°55'612.5
2018-Apr-16 23:00S 27°44' E 153°55'612.3
2018-Apr-16 22:30S 27°50' E 153°55'611.9
2018-Apr-16 22:00S 27°56' E 153°56'612.2
2018-Apr-16 21:30S 28°02' E 153°56'612.5
2018-Apr-16 21:00S 28°08' E 153°55'612.4
2018-Apr-16 20:30S 28°15' E 153°56'612.1
2018-Apr-16 20:00S 28°21' E 153°56'611.9
2018-Apr-16 19:30S 28°27' E 153°55'612.0
2018-Apr-16 19:00S 28°33' E 153°55'612.0
2018-Apr-16 18:28S 28°39' E 153°55'24011.0
2018-Apr-15 20:45S 32°32' E 152°51'2 9.9
2018-Apr-15 20:30S 32°35' E 152°50'510.0
2018-Apr-15 20:00S 32°39' E 152°47'510.7
2018-Apr-15 19:30S 32°43' E 152°43'611.5
2018-Apr-15 19:00S 32°47' E 152°39'713.0
2018-Apr-15 18:30S 32°52' E 152°34'713.4
2018-Apr-15 18:00S 32°58' E 152°29'713.7
2018-Apr-15 17:30S 33°03' E 152°24'714.1
2018-Apr-15 17:00S 33°09' E 152°18'714.3
2018-Apr-15 16:30S 33°14' E 152°13'2414.2
2018-Apr-15 14:48S 33°33' E 151°55'414.3
2018-Apr-15 14:29S 33°37' E 151°51'714.3
2018-Apr-15 14:00S 33°42' E 151°46'714.3
2018-Apr-15 13:30S 33°48' E 151°41'714.0
2018-Apr-15 13:00S 33°53' E 151°36'713.8
2018-Apr-15 12:30S 33°59' E 151°31'713.7
2018-Apr-15 12:00S 34°04' E 151°25'  
Track history (hours):
 
Tides and Currents Weather Stations Pressure Air Temp Water Temp Dewpoint Dewpoint Depression Visibility Wind Speed Wind Dir Waves Ship Positions

Last Tycoon

Last reported at 2018-Apr-16 23:34 UTC. Time now 2018-Apr-24 04:59 UTC.
Position S 27°37' E 153°55'.

Length 180 m; draft 8.4 m.

Type: Cargo ship. MMSI: 236607000.

Date/timePositionNaut miles runAvg speedWind from/ knotsBaromVisibWave heightAir tempDewpointWater temp
2018-Apr-16 23:34S 27°37' E 153°55'112.6
2018-Apr-16 23:27S 27°39' E 153°55'612.5
2018-Apr-16 23:00S 27°44' E 153°55'612.3
2018-Apr-16 22:30S 27°50' E 153°55'611.9
2018-Apr-16 22:00S 27°56' E 153°56'612.2
2018-Apr-16 21:30S 28°02' E 153°56'612.5
2018-Apr-16 21:00S 28°08' E 153°55'612.4
2018-Apr-16 20:30S 28°15' E 153°56'612.1
2018-Apr-16 20:00S 28°21' E 153°56'611.9
2018-Apr-16 19:30S 28°27' E 153°55'612.0
2018-Apr-16 19:00S 28°33' E 153°55'612.0
2018-Apr-16 18:28S 28°39' E 153°55'24011.0
2018-Apr-15 20:45S 32°32' E 152°51'2 9.9
2018-Apr-15 20:30S 32°35' E 152°50'510.0
2018-Apr-15 20:00S 32°39' E 152°47'510.7
2018-Apr-15 19:30S 32°43' E 152°43'611.5
2018-Apr-15 19:00S 32°47' E 152°39'713.0
2018-Apr-15 18:30S 32°52' E 152°34'713.4
2018-Apr-15 18:00S 32°58' E 152°29'713.7
2018-Apr-15 17:30S 33°03' E 152°24'714.1
2018-Apr-15 17:00S 33°09' E 152°18'714.3
2018-Apr-15 16:30S 33°14' E 152°13'2414.2
2018-Apr-15 14:48S 33°33' E 151°55'414.3
2018-Apr-15 14:29S 33°37' E 151°51'714.3
2018-Apr-15 14:00S 33°42' E 151°46'714.3
2018-Apr-15 13:30S 33°48' E 151°41'714.0
2018-Apr-15 13:00S 33°53' E 151°36'713.8
2018-Apr-15 12:30S 33°59' E 151°31'713.7
2018-Apr-15 12:00S 34°04' E 151°25'  

Dump ship's entire track history